Arch, NM

11:54 PM MDT on September 02, 2014 (GMT -0600)
S of ENMU | Change Station
CLOSE
Current Station
Personal Weather Station
Location: Portales, NM
Elevation: 4078 ft
Nearby Weather Stations

Elev 4078 ft 34.17 °N, 103.35 °W | Updated 10 seconds ago

Clear
Clear
84.2 °F
Feels Like 84 °F
N
6.7
Wind Variable Wind from North
Gusts 13.0 mph

Today
High -- | Low -- °F
--% Chance of Precip.
Yesterday
High -- | Low -- °F
Precip. -- in
6:27 AM 7:17 PM
First Quarter, 59% visible
Pressure 29.82 in
Visibility 10.0 miles
Clouds Clear
Heat Index 84 °F
Dew Point 58 °F
Humidity 41%
Rainfall 0.00 in
Snow Depth Not available.
UV 0 out of 12
Pollen 10.40 out of 12
Air Quality Not available.
Flu Activity Not available.
METAR KCVS 030458Z AUTO 15015KT 10SM CLR 26/14 A3002 RMK AO2 SLP098 T02640140 $

More Conditions Fewer Conditions

Pressure 29.82 in
Visibility 10.0 miles
Clouds Clear
Heat Index 84 °F
Dew Point 58 °F
Humidity 41%
Rainfall 0.00 in
Snow Depth Not available.
UV 0 out of 12
Pollen 10.40 out of 12
Air Quality Not available.
Flu Activity Not available.
METAR KCVS 030458Z AUTO 15015KT 10SM CLR 26/14 A3002 RMK AO2 SLP098 T02640140 $

More Conditions Fewer Conditions

10-Day Weather Forecast

Almanac

Astronomy

Sep. 02, 2014 Rise Set
Actual Time 6:27 AM MDT 7:17 PM MDT
Civil Twilight 6:02 AM MDT 7:43 PM MDT
Nautical Twilight 5:31 AM MDT 8:13 PM MDT
Astronomical Twilight 5:00 AM MDT 8:44 PM MDT
Moon 1:55 PM MDT (9/2) No Moon Set
Length of Visible Light 13h 41m
Length of Day
12h 50m
Tomorrow will be 2m 2s shorter.
First Quarter, 59% of the Moon is Illuminated
Sep 3
First Quarter
Sep 8
Full
Sep 15
Last Quarter
Sep 24
New
Oct 1
First Quarter

Yesterday's Extremes

State Highs State Lows

Community

WunderPhotos

Upload Photos

1,749,888 photos uploaded!

Nearby

Snow Depth

Station Depth Elevation
Sierra Blanca 1 in 10280 ft
Wesner Springs 1 in 11120 ft
Santa Fe 0 in 11445 ft
Gallegos Peak 0 in 9800 ft
Tolby 0 in 10180 ft

Earthquake Activity

City Distance Mag. Time & Date
No recent earthquake activity has been reported nearby.
Minimum magnitude displayed is 2.5.

Coastal Water Temperatures

Place Temperature
No Stations Reporting

Nearby Weather Stations